Time;durP1;ratioP1;P1;durP2;ratioP2;P2;SDS_P1;SDS_P2;PMS_P1;PMS_P2;Temp;Humidity;BMP_temperature;BMP_pressure;BME280_temperature;BME280_humidity;BME280_pressure;Samples;Min_cycle;Max_cycle;Signal;HPM_P1;HPM_P2
2023/08/23 00:01:37;;;;;;;;;4.00;4.00;;;;;24.64;69.07;100353.03;5063805;28;45592;-72
2023/08/23 00:04:03;;;;;;;;;3.33;3.33;;;;;24.60;68.98;100338.00;5063451;28;45466;-72
2023/08/23 00:06:28;;;;;;;;;3.00;3.00;;;;;24.54;68.68;100330.19;5067838;28;45279;-72
2023/08/23 00:08:54;;;;;;;;;5.00;4.00;;;;;24.46;67.90;100340.22;5070097;28;45401;-71
2023/08/23 00:11:19;;;;;;;;;3.33;2.33;;;;;24.27;68.80;100332.75;5063370;28;45406;-72
2023/08/23 00:13:46;;;;;;;;;4.00;3.67;;;;;24.15;69.32;100339.34;5062930;28;45437;-72
2023/08/23 00:16:11;;;;;;;;;4.33;4.00;;;;;24.02;69.59;100338.81;5066781;28;45481;-72
2023/08/23 00:18:37;;;;;;;;;4.00;4.00;;;;;24.00;70.12;100337.13;5070510;28;45687;-72
2023/08/23 00:21:03;;;;;;;;;2.33;2.33;;;;;23.96;70.49;100327.47;5065526;28;45670;-72
2023/08/23 00:23:29;;;;;;;;;4.33;4.33;;;;;23.94;70.59;100330.16;5064061;28;45536;-71
2023/08/23 00:25:54;;;;;;;;;4.00;4.00;;;;;23.92;70.89;100324.00;5052097;28;45451;-72
2023/08/23 00:28:20;;;;;;;;;6.00;5.00;;;;;23.89;71.54;100320.53;5065927;28;46502;-72
2023/08/23 00:30:52;;;;;;;;;4.33;4.33;;;;;23.83;71.35;100313.56;5071488;28;45451;-72
2023/08/23 00:33:18;;;;;;;;;5.00;4.67;;;;;23.81;72.08;100315.41;5062080;28;45398;-72
2023/08/23 00:35:44;;;;;;;;;5.33;4.00;;;;;23.88;71.79;100319.66;5063402;28;45460;-72
2023/08/23 00:38:09;;;;;;;;;5.00;4.67;;;;;23.86;71.77;100308.16;5075293;28;46317;-72
2023/08/23 00:40:35;;;;;;;;;4.33;4.33;;;;;23.93;71.95;100308.84;5069982;28;45236;-72
2023/08/23 00:43:01;;;;;;;;;4.67;4.67;;;;;23.91;71.82;100294.69;5048846;28;45538;-72
2023/08/23 00:45:30;;;;;;;;;3.67;3.67;;;;;24.09;71.11;100298.59;5063262;28;45451;-72
2023/08/23 00:47:56;;;;;;;;;4.67;4.00;;;;;24.12;70.95;100293.19;5074498;28;45402;-71
2023/08/23 00:50:22;;;;;;;;;5.67;5.00;;;;;24.13;71.45;100292.25;5069079;28;45921;-72
2023/08/23 00:52:48;;;;;;;;;4.00;4.00;;;;;23.96;70.77;100300.78;5043551;28;45216;-72
2023/08/23 00:55:14;;;;;;;;;5.67;4.00;;;;;23.94;70.78;100307.94;5060797;28;45484;-72
2023/08/23 00:57:39;;;;;;;;;4.00;4.00;;;;;23.99;71.12;100301.56;5066213;28;45306;-72
2023/08/23 01:00:06;;;;;;;;;3.00;3.00;;;;;23.96;70.52;100298.97;5053910;28;45582;-73
2023/08/23 01:02:33;;;;;;;;;4.00;4.00;;;;;24.11;70.72;100297.63;5069051;28;45487;-72
2023/08/23 01:04:59;;;;;;;;;5.33;4.33;;;;;24.15;69.82;100296.66;5046415;28;45423;-72
2023/08/23 01:07:51;;;;;;;;;3.00;3.00;;;;;24.19;69.69;100294.72;5072491;28;45967;-72
2023/08/23 01:10:38;;;;;;;;;2.00;2.00;;;;;24.27;69.19;100302.50;5059837;28;45514;-71
2023/08/23 01:13:35;;;;;;;;;2.67;2.67;;;;;24.25;69.07;100291.00;5063862;28;45417;-71
2023/08/23 01:16:01;;;;;;;;;4.00;4.00;;;;;24.29;69.18;100295.34;5064300;28;45384;-71
2023/08/23 01:18:28;;;;;;;;;4.00;4.00;;;;;24.20;68.64;100283.16;5063277;28;45588;-72
2023/08/23 01:20:54;;;;;;;;;5.67;4.67;;;;;24.25;68.96;100293.69;5067244;28;45417;-72
2023/08/23 01:23:22;;;;;;;;;4.00;4.00;;;;;24.22;69.43;100283.97;5060457;28;45435;-72
2023/08/23 01:25:49;;;;;;;;;5.00;5.00;;;;;24.21;69.41;100283.13;5067386;28;45492;-72
2023/08/23 01:28:15;;;;;;;;;4.00;3.33;;;;;24.21;69.34;100284.88;5065973;28;45850;-72
2023/08/23 01:30:42;;;;;;;;;5.00;4.33;;;;;23.96;69.55;100240.28;5066331;28;45910;-72
2023/08/23 01:33:40;;;;;;;;;3.00;2.00;;;;;24.19;69.75;100282.28;5061631;28;45403;-72
2023/08/23 01:36:21;;;;;;;;;5.00;4.33;;;;;24.14;70.22;100278.88;5058825;28;45550;-72
2023/08/23 01:38:48;;;;;;;;;4.00;4.00;;;;;24.20;69.92;100277.81;5066424;28;46180;-72
2023/08/23 01:41:15;;;;;;;;;4.00;4.00;;;;;24.15;69.86;100277.97;5052456;28;45313;-72
2023/08/23 01:43:41;;;;;;;;;4.67;4.67;;;;;24.12;69.92;100266.50;5043548;28;45418;-72
2023/08/23 01:46:06;;;;;;;;;6.00;4.33;;;;;24.03;69.64;100262.31;5062492;28;45510;-71
2023/08/23 01:48:32;;;;;;;;;4.33;3.00;;;;;23.91;70.48;100271.53;5073759;28;46088;-72
2023/08/23 01:50:58;;;;;;;;;6.00;4.33;;;;;23.89;70.68;100267.19;5063719;28;45538;-72
2023/08/23 01:53:23;;;;;;;;;6.33;4.33;;;;;23.76;71.40;100263.97;5068026;28;45468;-71
2023/08/23 01:55:49;;;;;;;;;5.00;5.00;;;;;23.69;72.20;100259.72;5058954;28;45307;-72
2023/08/23 01:58:14;;;;;;;;;5.00;4.67;;;;;23.64;71.89;100259.88;5066084;28;45379;-72
2023/08/23 02:00:46;;;;;;;;;4.00;4.00;;;;;23.52;71.96;100250.41;5059871;28;45532;-72
2023/08/23 02:03:11;;;;;;;;;5.00;4.00;;;;;23.59;71.46;100251.97;5046422;28;45335;-71
2023/08/23 02:05:37;;;;;;;;;5.00;4.00;;;;;23.60;71.60;100245.75;5066810;28;45550;-72
2023/08/23 02:08:03;;;;;;;;;4.00;4.00;;;;;23.69;70.88;100247.25;5066653;28;45524;-72
2023/08/23 02:10:28;;;;;;;;;6.00;5.00;;;;;23.72;71.50;100240.97;5066618;28;45428;-72
2023/08/23 02:12:54;;;;;;;;;4.67;4.00;;;;;23.85;71.39;100246.84;5074997;28;45572;-71
2023/08/23 02:15:20;;;;;;;;;4.67;4.67;;;;;23.87;70.65;100247.69;5046431;28;45581;-71
2023/08/23 02:17:45;;;;;;;;;5.00;4.33;;;;;23.89;71.12;100253.84;5067678;28;45426;-72
2023/08/23 02:20:11;;;;;;;;;5.00;5.00;;;;;23.70;71.58;100241.03;5054845;28;45425;-72
2023/08/23 02:22:37;;;;;;;;;5.33;5.33;;;;;23.74;71.43;100249.81;5059371;28;45340;-72
2023/08/23 02:25:02;;;;;;;;;4.33;4.00;;;;;23.77;70.80;100253.28;5065181;28;45748;-72
2023/08/23 02:27:28;;;;;;;;;4.67;4.67;;;;;23.82;71.24;100254.03;5077258;28;46367;-72
2023/08/23 02:29:54;;;;;;;;;5.00;4.67;;;;;23.89;70.58;100248.50;5057517;28;45446;-72
2023/08/23 02:32:19;;;;;;;;;3.00;3.00;;;;;23.87;70.46;100251.22;5057249;28;45442;-72
2023/08/23 02:34:45;;;;;;;;;4.00;4.00;;;;;23.91;70.40;100258.19;5057169;28;45221;-72
2023/08/23 02:37:11;;;;;;;;;4.00;4.00;;;;;23.87;70.36;100251.22;5057395;28;46150;-72
2023/08/23 02:39:36;;;;;;;;;5.00;4.33;;;;;23.90;70.02;100260.94;5065602;28;45548;-72
2023/08/23 02:42:02;;;;;;;;;5.00;4.00;;;;;23.91;69.35;100257.34;5076164;28;45297;-72
2023/08/23 02:44:28;;;;;;;;;4.00;4.00;;;;;23.88;69.67;100257.44;5075555;28;45583;-72
2023/08/23 02:46:53;;;;;;;;;5.00;5.00;;;;;23.87;70.01;100266.34;5075652;28;46956;-72
2023/08/23 02:49:19;;;;;;;;;4.00;4.00;;;;;23.86;69.84;100256.63;5077149;28;45405;-72
2023/08/23 02:51:44;;;;;;;;;4.00;4.00;;;;;23.82;69.88;100262.03;5077548;28;45375;-72
2023/08/23 02:54:10;;;;;;;;;5.00;5.00;;;;;23.79;70.06;100255.91;5077161;28;45434;-72
2023/08/23 02:56:36;;;;;;;;;4.00;4.00;;;;;23.84;70.09;100278.00;5064285;28;45551;-72
2023/08/23 02:59:01;;;;;;;;;5.33;4.00;;;;;23.80;70.38;100255.00;5068959;28;45528;-72
2023/08/23 03:01:27;;;;;;;;;4.33;4.00;;;;;23.88;70.00;100279.66;5077087;28;45438;-72
2023/08/23 03:03:52;;;;;;;;;6.00;4.00;;;;;23.86;70.11;100273.50;5076987;28;45469;-72
2023/08/23 03:06:18;;;;;;;;;4.67;4.00;;;;;23.81;70.16;100268.31;5078280;28;45993;-72
2023/08/23 03:08:43;;;;;;;;;5.00;5.00;;;;;23.74;69.98;100255.16;5079605;28;45290;-72
2023/08/23 03:11:09;;;;;;;;;6.00;5.67;;;;;23.75;70.14;100256.88;5071911;28;45480;-72
2023/08/23 03:13:35;;;;;;;;;6.00;5.00;;;;;23.80;70.33;100273.66;5060035;28;45309;-72
2023/08/23 03:16:01;;;;;;;;;5.33;5.00;;;;;23.80;70.38;100269.19;5059865;28;45454;-72
2023/08/23 03:18:26;;;;;;;;;4.00;4.00;;;;;23.84;70.41;100271.78;5059129;28;45537;-72
2023/08/23 03:20:52;;;;;;;;;5.00;5.00;;;;;23.81;70.30;100268.31;5063830;28;45294;-72
2023/08/23 03:23:19;;;;;;;;;5.00;5.00;;;;;23.77;70.05;100271.94;5060496;28;45302;-72
2023/08/23 03:25:48;;;;;;;;;6.33;6.00;;;;;23.67;70.65;100264.22;5059968;28;45482;-72
2023/08/23 03:28:14;;;;;;;;;6.00;5.67;;;;;23.73;70.78;100280.06;5059789;28;45421;-72
2023/08/23 03:30:40;;;;;;;;;4.00;3.00;;;;;23.39;70.36;100233.00;5078298;28;45440;-72
2023/08/23 03:33:06;;;;;;;;;4.33;4.33;;;;;23.68;70.58;100282.00;5079948;28;45434;-72
2023/08/23 03:35:32;;;;;;;;;5.67;5.00;;;;;23.63;70.24;100263.44;5079902;28;45958;-72
2023/08/23 03:37:58;;;;;;;;;6.00;6.00;;;;;23.58;70.97;100270.72;5073034;28;45477;-72
2023/08/23 03:40:23;;;;;;;;;5.67;5.00;;;;;23.53;71.46;100267.28;5059838;28;45329;-72
2023/08/23 03:42:49;;;;;;;;;5.67;5.33;;;;;23.39;71.60;100251.66;5059707;28;45456;-72
2023/08/23 03:45:17;;;;;;;;;6.67;6.67;;;;;23.49;71.48;100260.28;5059676;28;45553;-72
2023/08/23 03:47:43;;;;;;;;;4.33;4.33;;;;;23.57;71.53;100252.94;5070943;28;45532;-72
2023/08/23 03:50:09;;;;;;;;;6.67;6.00;;;;;23.65;71.63;100250.94;5079956;28;45389;-71
2023/08/23 03:52:35;;;;;;;;;5.00;4.67;;;;;23.73;71.28;100253.38;5079561;28;45407;-72
2023/08/23 03:55:01;;;;;;;;;6.67;6.00;;;;;23.65;71.39;100250.94;5074255;28;45339;-72
2023/08/23 03:57:27;;;;;;;;;6.00;6.00;;;;;23.60;71.56;100243.06;5041104;28;45262;-71
2023/08/23 03:59:52;;;;;;;;;6.00;6.00;;;;;23.53;71.81;100232.63;5059580;28;45445;-72
2023/08/23 04:02:18;;;;;;;;;6.00;6.00;;;;;23.45;72.37;100230.16;5058981;28;45597;-72
2023/08/23 04:04:44;;;;;;;;;6.33;6.33;;;;;23.44;72.26;100236.44;5058578;28;45484;-72
2023/08/23 04:07:13;;;;;;;;;5.00;4.67;;;;;23.52;72.02;100237.09;5040669;28;45386;-72
2023/08/23 04:09:39;;;;;;;;;5.33;4.67;;;;;23.58;71.97;100234.25;5059146;28;45485;-72
2023/08/23 04:12:05;;;;;;;;;4.67;4.67;;;;;23.54;71.39;100211.25;5059052;28;45734;-72
2023/08/23 04:14:31;;;;;;;;;6.00;5.33;;;;;23.73;71.01;100232.03;5058751;28;45506;-72
2023/08/23 04:16:56;;;;;;;;;7.00;6.00;;;;;23.68;71.53;100229.53;5058041;28;45542;-71
2023/08/23 04:19:22;;;;;;;;;5.67;5.33;;;;;23.65;71.43;100224.25;5069052;28;45695;-71
2023/08/23 04:21:48;;;;;;;;;6.33;5.33;;;;;23.64;72.09;100217.19;5068467;28;45623;-72
2023/08/23 04:24:15;;;;;;;;;6.33;5.33;;;;;23.63;71.45;100232.34;5078241;28;45968;-72
2023/08/23 04:26:40;;;;;;;;;5.67;5.67;;;;;23.58;71.25;100218.25;5069313;28;45506;-72
2023/08/23 04:29:06;;;;;;;;;5.33;5.33;;;;;23.66;70.97;100238.50;5058989;28;45331;-72
2023/08/23 04:31:31;;;;;;;;;6.33;6.33;;;;;23.69;71.35;100233.94;5058728;28;45411;-72
2023/08/23 04:33:57;;;;;;;;;6.67;6.67;;;;;23.68;70.93;100231.31;5058917;28;45936;-72
2023/08/23 04:36:23;;;;;;;;;6.00;5.33;;;;;23.69;71.02;100220.59;5072781;28;45497;-72
2023/08/23 04:38:48;;;;;;;;;6.67;5.67;;;;;23.68;70.97;100232.19;5077941;28;45419;-72
2023/08/23 04:41:14;;;;;;;;;6.33;6.00;;;;;23.68;71.22;100239.31;5079261;28;45207;-72
2023/08/23 04:43:39;;;;;;;;;7.00;6.00;;;;;23.69;71.26;100241.06;5076591;28;45972;-71
2023/08/23 04:46:08;;;;;;;;;7.67;5.00;;;;;23.70;71.73;100251.69;5058550;28;45481;-71
2023/08/23 04:48:34;;;;;;;;;6.33;6.33;;;;;23.64;72.25;100243.88;5058588;28;45423;-72
2023/08/23 04:51:00;;;;;;;;;6.00;6.00;;;;;23.53;71.87;100252.16;5058934;28;45308;-72
2023/08/23 04:53:26;;;;;;;;;6.67;6.00;;;;;23.51;71.50;100262.00;5065917;28;45376;-72
2023/08/23 04:56:00;;;;;;;;;7.00;6.00;;;;;23.47;71.76;100260.31;5067138;28;45481;-71
2023/08/23 04:58:32;;;;;;;;;7.00;7.00;;;;;23.47;72.10;100264.78;5058422;28;45451;-71
2023/08/23 05:01:06;;;;;;;;;7.33;7.00;;;;;23.43;71.76;100274.66;5058386;28;45438;-72
2023/08/23 05:03:33;;;;;;;;;5.33;5.33;;;;;23.38;72.44;100279.25;5065083;28;45999;-71
2023/08/23 05:05:59;;;;;;;;;7.00;7.00;;;;;23.42;72.67;100273.78;5058174;28;45439;-71
2023/08/23 05:08:25;;;;;;;;;7.00;5.33;;;;;23.40;72.07;100258.78;5058032;28;45501;-72
2023/08/23 05:10:52;;;;;;;;;6.33;6.33;;;;;23.55;72.33;100278.78;5058343;28;45430;-72
2023/08/23 05:13:18;;;;;;;;;5.33;5.33;;;;;23.58;72.18;100276.91;5063590;28;46289;-72
2023/08/23 05:15:44;;;;;;;;;7.00;7.00;;;;;23.67;71.52;100280.22;5078038;28;45236;-72
2023/08/23 05:18:09;;;;;;;;;12.00;11.00;;;;;23.72;71.60;100283.66;5077914;28;45754;-71
2023/08/23 05:20:38;;;;;;;;;15.00;11.00;;;;;23.74;71.84;100276.47;5075116;28;45448;-72
2023/08/23 05:23:03;;;;;;;;;10.67;10.00;;;;;23.78;72.21;100279.03;5057578;28;45540;-72
2023/08/23 05:25:29;;;;;;;;;10.67;9.67;;;;;23.82;72.16;100285.16;5057160;28;45478;-71
2023/08/23 05:27:55;;;;;;;;;8.00;7.33;;;;;23.75;72.30;100270.22;5058261;28;45316;-72
2023/08/23 05:30:21;;;;;;;;;8.00;6.00;;;;;23.88;71.98;100276.13;5057501;28;45349;-72
2023/08/23 05:32:47;;;;;;;;;8.00;8.00;;;;;23.74;71.35;100280.03;5057378;28;45506;-72
2023/08/23 05:35:12;;;;;;;;;8.00;7.33;;;;;23.56;70.91;100283.22;5073320;28;45496;-72
2023/08/23 05:37:38;;;;;;;;;5.33;5.33;;;;;23.60;70.42;100279.53;5077927;28;45461;-72
2023/08/23 05:40:05;;;;;;;;;6.00;6.00;;;;;23.70;70.98;100285.50;5069394;28;45438;-72
2023/08/23 05:42:30;;;;;;;;;3.67;3.00;;;;;23.75;70.71;100268.41;5057073;28;45537;-72
2023/08/23 05:44:56;;;;;;;;;6.33;6.00;;;;;23.94;70.96;100279.47;5038975;28;45604;-72
2023/08/23 05:47:22;;;;;;;;;13.67;13.33;;;;;24.08;71.07;100279.06;5058172;28;45430;-72
2023/08/23 05:49:48;;;;;;;;;10.33;9.00;;;;;24.12;71.13;100266.50;5057315;28;45313;-73
2023/08/23 05:52:13;;;;;;;;;8.33;8.00;;;;;24.28;71.17;100273.13;5072067;28;45916;-72
2023/08/23 05:54:39;;;;;;;;;6.33;6.33;;;;;24.39;70.16;100278.09;5056643;28;45409;-72
2023/08/23 05:57:05;;;;;;;;;6.33;6.00;;;;;24.48;69.51;100276.97;5071574;28;45419;-71
2023/08/23 05:59:33;;;;;;;;;5.33;5.00;;;;;24.58;69.18;100275.78;5072706;28;45504;-71
2023/08/23 06:01:59;;;;;;;;;5.33;5.33;;;;;24.57;68.65;100279.34;5075104;28;45526;-72
2023/08/23 06:04:25;;;;;;;;;7.00;6.33;;;;;24.61;69.49;100281.00;5062649;28;45493;-72
2023/08/23 06:06:54;;;;;;;;;8.00;8.00;;;;;24.70;69.26;100279.84;5075129;28;45524;-72
2023/08/23 06:09:20;;;;;;;;;8.00;6.00;;;;;24.72;68.75;100270.84;5072557;28;45445;-72
2023/08/23 06:11:47;;;;;;;;;7.33;7.00;;;;;24.88;68.53;100281.03;5076412;28;45453;-71
2023/08/23 06:14:23;;;;;;;;;7.00;7.00;;;;;24.97;68.20;100280.72;5076609;28;45604;-72
2023/08/23 06:16:50;;;;;;;;;7.33;6.33;;;;;25.02;67.76;100276.09;5074357;28;45224;-71
2023/08/23 06:19:16;;;;;;;;;9.67;9.67;;;;;25.15;68.08;100288.13;5055599;28;45660;-74
2023/08/23 06:21:42;;;;;;;;;7.33;7.33;;;;;25.15;67.57;100287.25;5058162;28;46600;-72
2023/08/23 06:24:08;;;;;;;;;7.00;7.00;;;;;25.20;67.81;100293.28;5073037;28;45568;-72
2023/08/23 06:26:34;;;;;;;;;7.00;7.00;;;;;25.26;67.74;100278.88;5067303;28;45432;-72
2023/08/23 06:29:00;;;;;;;;;7.67;7.33;;;;;25.43;67.56;100275.59;5071091;28;45605;-72
2023/08/23 06:31:26;;;;;;;;;10.00;9.00;;;;;25.96;67.08;100283.47;5049607;28;46708;-72
2023/08/23 06:33:52;;;;;;;;;8.67;8.67;;;;;27.64;63.22;100279.31;5058721;28;45450;-72
2023/08/23 06:36:18;;;;;;;;;9.00;9.00;;;;;29.22;59.03;100281.59;5056342;28;45275;-72
2023/08/23 06:38:44;;;;;;;;;8.00;7.00;;;;;30.48;55.58;100274.78;5076492;28;45391;-72
2023/08/23 06:41:10;;;;;;;;;9.67;9.00;;;;;31.63;52.51;100270.66;5079277;28;45386;-72
2023/08/23 06:43:35;;;;;;;;;7.00;6.33;;;;;32.41;49.76;100266.66;5060739;28;45327;-72
2023/08/23 06:46:01;;;;;;;;;7.00;7.00;;;;;33.20;49.13;100267.72;5060223;28;45280;-72
2023/08/23 06:48:27;;;;;;;;;6.00;6.00;;;;;33.87;46.49;100281.09;5061149;28;45245;-74
2023/08/23 06:50:54;;;;;;;;;7.67;7.00;;;;;34.74;45.40;100276.56;5060375;28;45835;-70
2023/08/23 06:53:20;;;;;;;;;8.00;6.67;;;;;35.34;43.45;100285.56;5060201;28;45394;-70
2023/08/23 06:55:45;;;;;;;;;6.00;6.00;;;;;35.82;43.30;100279.97;5059801;28;45786;-70
2023/08/23 06:58:11;;;;;;;;;6.00;5.33;;;;;36.46;41.46;100288.47;5054517;28;45501;-70
2023/08/23 07:00:37;;;;;;;;;5.67;5.33;;;;;37.16;41.12;100277.09;5076001;28;45973;-71
2023/08/23 07:03:03;;;;;;;;;6.00;6.00;;;;;37.72;39.11;100275.03;5070537;27;45367;-72
2023/08/23 07:05:29;;;;;;;;;8.00;6.67;;;;;38.26;38.75;100287.47;5073374;28;45489;-72
2023/08/23 07:07:55;;;;;;;;;7.33;5.67;;;;;38.71;37.88;100283.41;5077463;27;45211;-72
2023/08/23 07:10:21;;;;;;;;;8.33;8.33;;;;;39.30;36.18;100287.00;5074560;28;46115;-71
2023/08/23 07:12:46;;;;;;;;;6.00;6.00;;;;;39.80;36.15;100277.69;5059040;28;45539;-72
2023/08/23 07:15:12;;;;;;;;;6.00;6.00;;;;;40.39;35.64;100286.50;5077837;28;45869;-72
2023/08/23 07:17:38;;;;;;;;;8.00;6.33;;;;;40.76;34.16;100286.41;5076398;27;45430;-72
2023/08/23 07:20:05;;;;;;;;;6.00;5.00;;;;;41.13;34.34;100291.72;5077845;28;46192;-73
2023/08/23 07:22:31;;;;;;;;;6.00;6.00;;;;;41.58;34.32;100295.31;5080130;27;45548;-71
2023/08/23 07:24:56;;;;;;;;;7.67;7.33;;;;;41.86;32.00;100287.81;5072800;28;45772;-73
2023/08/23 07:27:22;;;;;;;;;6.00;6.00;;;;;42.36;32.96;100285.25;5076054;27;45449;-72
2023/08/23 07:29:48;;;;;;;;;5.67;4.33;;;;;42.72;31.29;100291.41;5075567;28;45508;-72
2023/08/23 07:32:14;;;;;;;;;6.67;6.33;;;;;42.64;31.78;100286.75;5077649;27;45314;-72
2023/08/23 07:34:39;;;;;;;;;6.33;5.00;;;;;42.66;31.29;100292.94;5077654;28;45387;-72
2023/08/23 07:37:06;;;;;;;;;6.67;5.00;;;;;43.06;31.41;100298.66;5078199;27;45326;-72
2023/08/23 07:39:31;;;;;;;;;7.00;7.00;;;;;43.34;30.65;100301.94;5067686;28;45424;-73
2023/08/23 07:41:57;;;;;;;;;4.00;4.00;;;;;43.83;30.90;100306.50;5056804;28;45747;-72
2023/08/23 07:44:23;;;;;;;;;5.67;5.67;;;;;44.33;29.49;100304.41;5065701;28;45460;-72
2023/08/23 07:46:48;;;;;;;;;5.00;5.00;;;;;44.44;28.89;100304.03;5078494;28;45477;-72
2023/08/23 07:49:14;;;;;;;;;5.33;4.67;;;;;44.91;29.75;100305.84;5078220;28;45485;-71
2023/08/23 07:51:40;;;;;;;;;7.00;6.67;;;;;45.22;28.25;100302.97;5056900;28;45545;-74
2023/08/23 07:54:07;;;;;;;;;6.33;5.67;;;;;45.33;28.28;100309.13;5078683;28;45345;-73
2023/08/23 07:56:33;;;;;;;;;6.33;6.00;;;;;45.88;28.14;100299.56;5078605;28;45437;-73
2023/08/23 07:58:59;;;;;;;;;5.67;5.00;;;;;46.18;27.02;100296.81;5078872;28;45385;-73
2023/08/23 08:01:25;;;;;;;;;4.33;4.33;;;;;46.07;26.75;100266.94;5078630;28;45296;-72
2023/08/23 08:03:51;;;;;;;;;6.67;5.00;;;;;46.55;26.47;100298.56;5075774;27;45544;-72
2023/08/23 08:06:17;;;;;;;;;6.00;6.00;;;;;46.81;27.06;100294.38;5072629;27;45547;-76
2023/08/23 08:08:43;;;;;;;;;5.33;5.00;;;;;47.05;26.05;100295.03;5069978;28;47909;-73
2023/08/23 08:11:14;;;;;;;;;7.33;6.33;;;;;47.48;25.83;100293.06;5056473;28;45430;-73
2023/08/23 08:13:39;;;;;;;;;7.67;6.33;;;;;47.62;25.16;100294.03;5058558;28;45444;-72
2023/08/23 08:16:14;;;;;;;;;7.00;5.67;;;;;47.34;25.07;100294.88;5059551;28;45303;-72
2023/08/23 08:18:40;;;;;;;;;7.00;5.33;;;;;47.14;26.14;100289.16;5078151;28;45936;-72
2023/08/23 08:21:06;;;;;;;;;6.33;5.33;;;;;47.54;26.00;100286.72;5078353;28;45394;-72
2023/08/23 08:23:32;;;;;;;;;6.00;5.33;;;;;47.71;25.77;100287.25;5077786;28;45434;-72
2023/08/23 08:25:58;;;;;;;;;8.00;8.00;;;;;48.04;24.97;100294.94;5061450;28;45379;-75
2023/08/23 08:28:25;;;;;;;;;6.00;6.00;;;;;48.41;25.21;100287.19;5071603;28;46197;-73
2023/08/23 08:30:50;;;;;;;;;7.67;6.67;;;;;48.44;24.45;100291.47;5043434;28;45531;-71
2023/08/23 08:33:17;;;;;;;;;6.00;6.00;;;;;48.27;25.51;100280.75;5076897;28;45601;-72
2023/08/23 08:35:43;;;;;;;;;6.33;6.00;;;;;48.28;24.77;100276.06;5060123;28;45320;-71
2023/08/23 08:38:09;;;;;;;;;7.00;7.00;;;;;48.61;24.02;100281.72;5070416;28;45699;-72
2023/08/23 08:40:38;;;;;;;;;6.00;6.00;;;;;48.54;24.75;100281.69;5057680;28;45749;-71
2023/08/23 08:43:05;;;;;;;;;7.00;6.00;;;;;47.97;25.06;100277.41;5058007;28;45418;-71
2023/08/23 08:45:30;;;;;;;;;8.00;7.33;;;;;47.98;26.25;100285.53;5059211;28;45279;-72
2023/08/23 08:47:57;;;;;;;;;6.00;6.00;;;;;48.29;24.39;100281.44;5069399;28;45957;-71
2023/08/23 08:50:30;;;;;;;;;6.00;5.00;;;;;48.27;24.97;100280.75;5056991;28;45327;-72
2023/08/23 08:52:59;;;;;;;;;7.00;5.33;;;;;48.01;25.86;100278.72;5072214;28;45316;-71
2023/08/23 08:55:26;;;;;;;;;6.33;6.33;;;;;47.89;25.15;100283.94;5076834;28;45252;-72
2023/08/23 08:57:53;;;;;;;;;6.00;5.33;;;;;48.01;25.18;100281.47;5068675;28;45520;-71
2023/08/23 09:00:26;;;;;;;;;2.67;2.67;;;;;48.22;25.70;100283.28;5068518;28;45393;-71
2023/08/23 09:02:54;;;;;;;;;6.00;5.67;;;;;48.63;25.22;100293.44;5074139;27;45620;-71
2023/08/23 09:05:24;;;;;;;;;6.33;6.33;;;;;48.30;24.63;100287.81;5056312;28;45378;-72
2023/08/23 09:07:51;;;;;;;;;5.33;5.00;;;;;48.34;25.54;100286.34;5063667;28;46175;-72
2023/08/23 09:10:17;;;;;;;;;7.00;6.00;;;;;48.86;24.88;100283.91;5055840;28;45610;-70
2023/08/23 09:12:43;;;;;;;;;8.00;6.00;;;;;49.20;24.24;100282.03;5075676;28;45612;-70
2023/08/23 09:15:09;;;;;;;;;6.33;6.33;;;;;49.39;24.27;100286.72;5076384;28;45574;-72
2023/08/23 09:17:36;;;;;;;;;11.00;10.33;;;;;49.58;24.04;100295.22;5074840;28;45937;-72
2023/08/23 09:20:08;;;;;;;;;7.00;6.33;;;;;49.14;24.32;100292.88;5073199;28;45845;-72
2023/08/23 09:22:35;;;;;;;;;7.00;7.00;;;;;48.38;24.90;100276.53;5073920;28;45415;-71
2023/08/23 09:25:04;;;;;;;;;6.67;6.00;;;;;48.66;24.85;100278.34;5075483;28;45433;-72
2023/08/23 09:27:31;;;;;;;;;7.00;5.33;;;;;48.31;25.21;100281.19;5061277;28;45651;-71
2023/08/23 09:30:01;;;;;;;;;7.00;7.00;;;;;48.19;25.19;100275.38;5073873;28;45514;-72
2023/08/23 09:32:31;;;;;;;;;7.67;7.67;;;;;47.70;25.95;100276.41;5073787;28;45445;-71
2023/08/23 09:34:57;;;;;;;;;6.67;6.33;;;;;47.37;26.13;100277.88;5058461;28;45620;-72
2023/08/23 09:37:23;;;;;;;;;5.33;5.00;;;;;47.20;26.75;100268.19;5071666;28;46146;-71
2023/08/23 09:39:48;;;;;;;;;7.67;7.00;;;;;47.06;26.51;100283.78;5071252;28;45850;-72
2023/08/23 09:42:15;;;;;;;;;8.33;7.00;;;;;46.95;27.70;100270.50;5074653;28;45532;-71
2023/08/23 09:44:46;;;;;;;;;5.00;5.00;;;;;46.87;26.69;100268.72;5060649;28;45362;-72
2023/08/23 09:47:17;;;;;;;;;6.67;6.67;;;;;46.69;27.66;100260.00;5073488;28;45472;-71
2023/08/23 09:49:44;;;;;;;;;6.00;6.00;;;;;46.47;27.75;100261.91;5072385;28;45516;-71
2023/08/23 09:52:11;;;;;;;;;4.33;4.33;;;;;46.48;27.65;100267.25;5076273;28;45510;-71
2023/08/23 09:55:11;;;;;;;;;9.00;7.67;;;;;46.85;27.72;100264.44;5075829;28;45435;-71
2023/08/23 09:57:38;;;;;;;;;6.33;6.00;;;;;46.95;27.08;100262.19;5071807;28;46116;-72
2023/08/23 10:00:04;;;;;;;;;8.00;7.67;;;;;47.02;27.80;100265.88;5055081;28;45409;-72
2023/08/23 10:02:31;;;;;;;;;8.00;8.00;;;;;47.35;26.69;100265.31;5049262;28;45492;-72
2023/08/23 10:04:58;;;;;;;;;8.00;8.00;;;;;47.68;27.30;100261.94;5058338;28;45443;-72
2023/08/23 10:07:23;;;;;;;;;8.00;8.00;;;;;47.67;26.01;100258.28;5037204;28;45590;-71
2023/08/23 10:09:50;;;;;;;;;9.00;8.00;;;;;46.97;27.59;100257.31;5062438;28;45727;-72
2023/08/23 10:12:18;;;;;;;;;8.33;7.67;;;;;47.03;27.20;100250.97;5074411;28;45360;-72
2023/08/23 10:14:46;;;;;;;;;10.00;9.00;;;;;47.16;27.86;100258.56;5057401;28;45742;-72
2023/08/23 10:17:16;;;;;;;;;7.00;7.00;;;;;47.26;26.80;100247.13;5054789;28;46129;-72
2023/08/23 10:19:47;;;;;;;;;6.67;6.67;;;;;47.11;28.36;100237.00;5063530;28;45421;-73
2023/08/23 10:22:13;;;;;;;;;6.33;6.33;;;;;47.38;27.02;100246.38;5059975;28;45485;-73
2023/08/23 10:24:40;;;;;;;;;9.67;9.00;;;;;47.70;28.15;100232.97;5069818;28;45505;-75
2023/08/23 10:27:08;;;;;;;;;7.00;7.00;;;;;47.73;27.00;100234.47;5060428;28;45576;-78
2023/08/23 10:29:37;;;;;;;;;7.33;6.67;;;;;47.47;27.89;100233.25;5064280;28;45358;-72
2023/08/23 10:32:08;;;;;;;;;7.33;7.33;;;;;47.53;27.75;100235.19;5060414;28;45632;-72
2023/08/23 10:34:36;;;;;;;;;8.33;7.67;;;;;47.57;27.65;100230.97;5074635;28;45408;-72
2023/08/23 10:37:19;;;;;;;;;8.00;7.00;;;;;47.37;27.67;100218.91;5074918;28;46184;-73
2023/08/23 10:39:50;;;;;;;;;7.67;7.67;;;;;47.19;28.32;100223.06;5073432;27;45525;-73
2023/08/23 10:42:17;;;;;;;;;7.67;7.67;;;;;47.02;28.30;100221.63;5074549;28;45532;-72
2023/08/23 10:45:00;;;;;;;;;9.00;8.33;;;;;46.57;29.00;100212.72;5076654;28;45382;-73
2023/08/23 10:47:26;;;;;;;;;3.33;3.33;;;;;46.26;29.75;100208.31;5076411;28;45414;-72
2023/08/23 10:49:52;;;;;;;;;8.33;7.33;;;;;46.14;29.29;100201.59;5075761;28;45454;-72
2023/08/23 10:52:20;;;;;;;;;9.00;8.67;;;;;45.72;30.69;100203.19;5075999;27;45330;-72
2023/08/23 10:54:46;;;;;;;;;8.67;7.67;;;;;45.51;30.35;100188.25;5076260;28;45387;-72
2023/08/23 10:57:12;;;;;;;;;7.67;7.33;;;;;45.37;30.95;100191.88;5076654;28;45345;-72
2023/08/23 10:59:38;;;;;;;;;8.67;6.00;;;;;45.39;31.02;100193.38;5076833;28;45239;-72
2023/08/23 11:02:04;;;;;;;;;9.67;8.33;;;;;45.15;31.65;100197.25;5076584;27;45231;-72
2023/08/23 11:04:30;;;;;;;;;7.67;7.67;;;;;45.06;32.06;100190.09;5071284;28;45383;-72
2023/08/23 11:06:56;;;;;;;;;9.00;8.67;;;;;44.72;32.29;100187.81;5061632;28;46090;-72
2023/08/23 11:09:22;;;;;;;;;7.67;7.67;;;;;44.58;32.27;100173.81;5045491;28;45749;-72
2023/08/23 11:11:48;;;;;;;;;13.67;10.33;;;;;44.67;32.69;100180.13;5037115;28;45561;-72
2023/08/23 11:14:14;;;;;;;;;8.00;8.00;;;;;44.43;33.10;100172.84;5057394;28;45222;-72
2023/08/23 11:16:39;;;;;;;;;10.00;9.00;;;;;44.48;33.40;100174.06;5074072;28;45516;-72
2023/08/23 11:19:09;;;;;;;;;9.00;9.00;;;;;44.40;32.95;100176.84;5064303;28;45397;-73
2023/08/23 11:21:35;;;;;;;;;9.33;9.33;;;;;43.96;33.95;100163.69;5055103;28;45362;-72
2023/08/23 11:24:05;;;;;;;;;8.50;8.00;;;;;43.91;34.11;100166.13;5054775;28;45438;-72